Aransas Pass, Texas
Current Conditions -  °F | °C
As of 3:35 PM on Friday 31 Oct 2014 (Local Time) from KTFP Reporting Station
Clear Clear  
Wind Chill: 82°   Ceiling: Unl
Heat Index: 82°   Visibility: 10mi
Dew Point: 38°   Wind: 9mph
Humidity: 21%   Direction: 40°NE
Pressure: 30.14"   Gusts: NA
Location:  27.9°N, 97.15°W
Report Text: KTFP 312035Z AUTO 04008KT 10SM CLR 28/04 A3014 RMK AO2 T02800036
Loading
Personal Weather Stations






























Interactive Weather Map
Tropical Storm Tracking
New forecast layout! Learn more

10-Day Weather Forecast

Advertisements
Track Severe Weather on mobile